Time;durP1;ratioP1;P1;durP2;ratioP2;P2;SDS_P1;SDS_P2;PMS_P1;PMS_P2;Temp;Humidity;BMP_temperature;BMP_pressure;BME280_temperature;BME280_humidity;BME280_pressure;Samples;Min_cycle;Max_cycle;Signal;HPM_P1;HPM_P2
2022/04/16 00:02:33;;;;;;;;;;;;;;;6.11;62.32;96333.03;6375657;27;19977;-64
2022/04/16 00:05:36;;;;;;;;;;;;;;;6.18;61.60;96337.81;6375545;27;19924;-65
2022/04/16 00:08:40;;;;;;;;;;;;;;;6.50;61.82;96340.38;6375473;27;20042;-64
2022/04/16 00:11:46;;;;;;;;;;;;;;;6.53;61.06;96345.44;6374462;27;19923;-64
2022/04/16 00:14:47;;;;;;;;;;;;;;;6.71;60.74;96349.63;6374272;27;20012;-65
2022/04/16 00:17:50;;;;;;;;;;;;;;;6.65;61.19;96355.22;6374635;27;19923;-64
2022/04/16 00:20:56;;;;;;;;;;;;;;;6.62;61.33;96360.59;6375158;27;19958;-65
2022/04/16 00:23:57;;;;;;;;;;;;;;;6.54;61.75;96357.59;6375035;27;19930;-65
2022/04/16 00:27:00;;;;;;;;;;;;;;;6.62;61.91;96360.59;6374934;27;19919;-65
2022/04/16 00:30:02;;;;;;;;;;;;;;;6.75;60.82;96361.56;6374439;27;20415;-64
2022/04/16 00:33:05;;;;;;;;;;;;;;;6.83;60.89;96358.53;6374159;27;19919;-64
2022/04/16 00:36:06;;;;;;;;;;;;;;;6.61;61.73;96363.31;6374042;27;19923;-64
2022/04/16 00:39:07;;;;;;;;;;;;;;;6.50;61.91;96362.13;6373704;27;20021;-65
2022/04/16 00:42:11;;;;;;;;;;;;;;;6.50;61.99;96366.53;6373878;27;20400;-64
2022/04/16 00:45:14;;;;;;;;;;;;;;;6.39;61.84;96371.50;6374684;27;19923;-65
2022/04/16 00:48:15;;;;;;;;;;;;;;;6.51;61.94;96373.44;6373819;27;19923;-64
2022/04/16 00:51:18;;;;;;;;;;;;;;;6.46;61.88;96381.53;6373412;27;19923;-64
2022/04/16 00:54:22;;;;;;;;;;;;;;;6.39;61.53;96369.72;6374506;27;20353;-65
2022/04/16 00:57:27;;;;;;;;;;;;;;;6.39;61.74;96374.13;6374273;27;19927;-64
2022/04/16 01:00:28;;;;;;;;;;;;;;;6.62;61.80;96378.03;6373324;27;19923;-64
2022/04/16 01:03:31;;;;;;;;;;;;;;;6.38;61.85;96388.13;6374170;27;20026;-64
2022/04/16 01:06:39;;;;;;;;;;;;;;;6.51;62.03;96394.34;6373959;27;19954;-64
2022/04/16 01:09:42;;;;;;;;;;;;;;;6.17;61.93;96393.63;6355549;27;19924;-64
2022/04/16 01:12:47;;;;;;;;;;;;;;;6.11;62.61;96407.00;6374045;27;19923;-64
2022/04/16 01:15:50;;;;;;;;;;;;;;;5.71;63.47;96398.66;6373847;27;19923;-64
2022/04/16 01:18:55;;;;;;;;;;;;;;;5.44;63.98;96410.56;6372843;27;19930;-65
2022/04/16 01:22:00;;;;;;;;;;;;;;;5.51;64.08;96406.72;6373580;27;20380;-65
2022/04/16 01:25:04;;;;;;;;;;;;;;;5.54;64.25;96406.53;6373607;27;19927;-65
2022/04/16 01:28:05;;;;;;;;;;;;;;;5.59;64.46;96409.75;6372629;27;19946;-64
2022/04/16 01:31:07;;;;;;;;;;;;;;;5.56;64.38;96420.38;6372278;27;19931;-64
2022/04/16 01:34:08;;;;;;;;;;;;;;;5.62;64.11;96417.44;6372496;27;19965;-65
2022/04/16 01:37:09;;;;;;;;;;;;;;;5.59;64.02;96428.88;6373373;27;19984;-64
2022/04/16 01:40:14;;;;;;;;;;;;;;;5.81;63.62;96420.75;6373181;27;19923;-65
2022/04/16 01:43:15;;;;;;;;;;;;;;;5.87;63.53;96419.59;6372444;27;19927;-64
2022/04/16 01:46:17;;;;;;;;;;;;;;;6.05;62.73;96418.63;6372267;27;19923;-64
2022/04/16 01:49:20;;;;;;;;;;;;;;;5.93;62.85;96428.88;6371326;27;19930;-65
2022/04/16 01:52:23;;;;;;;;;;;;;;;5.95;62.76;96433.13;6354746;27;19924;-64
2022/04/16 01:55:24;;;;;;;;;;;;;;;5.78;62.98;96431.38;6354619;27;19928;-64
2022/04/16 01:58:28;;;;;;;;;;;;;;;5.75;63.40;96430.69;6372752;27;19928;-64
2022/04/16 02:01:32;;;;;;;;;;;;;;;6.00;62.67;96432.84;6372677;27;19930;-64
2022/04/16 02:04:33;;;;;;;;;;;;;;;6.05;62.34;96433.44;6372271;27;19923;-65
2022/04/16 02:07:35;;;;;;;;;;;;;;;6.18;62.28;96428.44;6372620;27;19931;-65
2022/04/16 02:10:36;;;;;;;;;;;;;;;6.24;62.11;96425.47;6372467;27;19931;-65
2022/04/16 02:13:37;;;;;;;;;;;;;;;6.12;62.41;96428.75;6371792;27;19946;-64
2022/04/16 02:16:40;;;;;;;;;;;;;;;6.05;62.29;96429.06;6372361;27;19923;-65
2022/04/16 02:19:43;;;;;;;;;;;;;;;5.98;62.47;96437.34;6372339;27;19923;-64
2022/04/16 02:22:46;;;;;;;;;;;;;;;5.97;62.80;96440.84;6372036;27;19930;-64
2022/04/16 02:25:54;;;;;;;;;;;;;;;5.95;62.66;96442.72;6372175;27;19923;-64
2022/04/16 02:28:59;;;;;;;;;;;;;;;6.00;62.61;96456.34;6372400;27;19923;-64
2022/04/16 02:32:02;;;;;;;;;;;;;;;6.19;62.29;96457.06;6371129;27;19931;-64
2022/04/16 02:35:06;;;;;;;;;;;;;;;6.43;61.46;96454.91;6371949;27;19923;-64
2022/04/16 02:38:08;;;;;;;;;;;;;;;6.46;61.25;96459.13;6370500;27;20396;-64
2022/04/16 02:41:11;;;;;;;;;;;;;;;6.61;61.02;96468.72;6371870;27;19923;-65
2022/04/16 02:47:34;;;;;;;;;;;;;;;6.72;60.71;96468.94;6371112;27;20453;-63
2022/04/16 02:50:35;;;;;;;;;;;;;;;6.97;59.80;96471.03;6370931;27;19923;-65
2022/04/16 02:53:37;;;;;;;;;;;;;;;6.92;59.95;96472.22;6371079;28;19992;-64
2022/04/16 02:56:38;;;;;;;;;;;;;;;6.95;60.06;96472.03;6371323;28;19999;-65
2022/04/16 02:59:39;;;;;;;;;;;;;;;6.83;60.06;96483.22;6372059;27;19927;-64
2022/04/16 03:02:40;;;;;;;;;;;;;;;6.84;59.78;96471.81;6376145;27;19938;-65
2022/04/16 03:05:41;;;;;;;;;;;;;;;6.86;60.33;96470.78;6377078;27;19931;-65
2022/04/16 03:08:45;;;;;;;;;;;;;;;7.31;59.15;96473.50;6357844;27;20407;-64
2022/04/16 03:11:46;;;;;;;;;;;;;;;7.80;57.56;96475.81;6376504;27;19923;-64
2022/04/16 03:18:07;;;;;;;;;;;;;;;8.35;55.40;96482.94;6375924;27;19945;-64
2022/04/16 03:21:13;;;;;;;;;;;;;;;8.14;56.03;96502.59;6376471;27;20463;-64
2022/04/16 03:24:18;;;;;;;;;;;;;;;8.08;55.25;96480.22;6375672;27;20349;-65
2022/04/16 03:27:21;;;;;;;;;;;;;;;8.08;55.69;96482.84;6375567;27;19923;-65
2022/04/16 03:30:23;;;;;;;;;;;;;;;8.28;54.99;96492.09;6375601;27;20020;-63
2022/04/16 03:33:27;;;;;;;;;;;;;;;8.09;55.67;96477.50;6376381;27;19923;-64
2022/04/16 03:36:29;;;;;;;;;;;;;;;8.05;55.80;96476.00;6375618;27;19930;-65
2022/04/16 03:39:34;;;;;;;;;;;;;;;7.83;56.51;96501.81;6375808;27;19990;-65
2022/04/16 03:43:00;;;;;;;;;;;;;;;7.74;56.47;96492.75;6374915;27;20013;-65
2022/04/16 03:46:04;;;;;;;;;;;;;;;8.04;55.42;96495.31;6366524;27;20341;-65
2022/04/16 03:49:05;;;;;;;;;;;;;;;8.46;54.13;96484.91;6357395;27;19931;-65
2022/04/16 03:52:06;;;;;;;;;;;;;;;8.57;53.84;96497.34;6375202;27;20311;-65
2022/04/16 04:01:55;;;;;;;;;;;;;;;8.98;51.60;96513.94;6375534;27;19924;-64
2022/04/16 04:04:59;;;;;;;;;;;;;;;8.94;52.06;96522.91;6375101;27;20297;-65
2022/04/16 04:08:01;;;;;;;;;;;;;;;9.05;51.72;96518.78;6375754;27;19924;-64
2022/04/16 04:11:06;;;;;;;;;;;;;;;9.40;50.94;96529.63;6374983;27;19924;-65
2022/04/16 04:14:07;;;;;;;;;;;;;;;9.75;49.95;96527.28;6375230;27;19923;-65
2022/04/16 04:17:11;;;;;;;;;;;;;;;9.99;49.63;96531.81;6375198;27;19920;-65
2022/04/16 04:20:13;;;;;;;;;;;;;;;10.34;49.20;96542.59;6374441;27;19930;-63
2022/04/16 04:23:14;;;;;;;;;;;;;;;10.51;48.45;96550.16;6356378;27;19924;-65
2022/04/16 04:26:15;;;;;;;;;;;;;;;10.65;48.39;96548.34;6373655;27;19924;-65
2022/04/16 04:29:17;;;;;;;;;;;;;;;11.13;46.21;96546.63;6373738;27;19931;-65
2022/04/16 04:32:20;;;;;;;;;;;;;;;11.30;46.43;96568.28;6374018;27;19923;-65
2022/04/16 04:35:21;;;;;;;;;;;;;;;11.49;46.06;96580.94;6374813;27;19924;-64
2022/04/16 04:38:24;;;;;;;;;;;;;;;11.72;45.18;96579.25;6374572;27;19923;-64
2022/04/16 04:41:26;;;;;;;;;;;;;;;11.46;45.92;96582.88;6373737;27;19923;-65
2022/04/16 04:44:29;;;;;;;;;;;;;;;11.37;45.98;96580.88;6374517;27;20046;-65
2022/04/16 04:47:30;;;;;;;;;;;;;;;11.15;45.81;96565.81;6373860;27;19931;-65
2022/04/16 04:50:31;;;;;;;;;;;;;;;11.13;46.47;96567.69;6373700;27;19924;-65
2022/04/16 04:53:32;;;;;;;;;;;;;;;11.64;45.45;96564.84;6373575;27;19923;-65
2022/04/16 04:56:34;;;;;;;;;;;;;;;11.96;43.82;96563.44;6373258;27;20404;-65
2022/04/16 04:59:37;;;;;;;;;;;;;;;12.35;43.43;96570.94;6372989;27;19930;-65
2022/04/16 05:02:43;;;;;;;;;;;;;;;12.65;42.44;96579.25;6374070;27;20384;-65
2022/04/16 05:05:44;;;;;;;;;;;;;;;13.01;41.54;96581.63;6373141;27;19923;-65
2022/04/16 05:08:45;;;;;;;;;;;;;;;13.37;41.39;96587.63;6373347;27;20408;-65
2022/04/16 05:11:46;;;;;;;;;;;;;;;13.45;40.44;96579.91;6373194;27;19926;-65
2022/04/16 05:14:47;;;;;;;;;;;;;;;13.46;39.87;96586.88;6373075;27;20388;-65
2022/04/16 05:17:50;;;;;;;;;;;;;;;13.36;40.15;96591.25;6373774;27;19968;-64
2022/04/16 05:20:55;;;;;;;;;;;;;;;13.53;39.56;96586.38;6373496;27;19923;-64
2022/04/16 05:23:56;;;;;;;;;;;;;;;13.90;38.33;96585.03;6371674;27;19981;-64
2022/04/16 05:26:59;;;;;;;;;;;;;;;13.84;38.64;96580.28;6373268;27;20014;-65
2022/04/16 05:36:43;;;;;;;;;;;;;;;18.18;31.70;96595.66;6373248;27;19930;-66
2022/04/16 05:39:43;;;;;;;;;;;;;;;21.14;28.20;96603.53;6372099;27;19924;-64
2022/04/16 05:42:45;;;;;;;;;;;;;;;20.61;27.58;96598.63;6372049;27;19934;-65
2022/04/16 05:45:50;;;;;;;;;;;;;;;20.59;28.39;96632.72;6373010;27;19923;-65
2022/04/16 05:48:54;;;;;;;;;;;;;;;22.14;25.22;96617.13;6373010;27;19924;-65
2022/04/16 05:51:55;;;;;;;;;;;;;;;21.69;25.97;96618.75;6372851;27;20023;-65
2022/04/16 05:54:56;;;;;;;;;;;;;;;20.34;27.30;96617.66;6371639;27;19923;-64
2022/04/16 05:57:57;;;;;;;;;;;;;;;19.02;29.30;96634.22;6371995;27;19930;-65
2022/04/16 06:01:01;;;;;;;;;;;;;;;17.36;31.74;96621.38;6372309;27;19927;-64
2022/04/16 06:04:04;;;;;;;;;;;;;;;16.45;31.85;96652.97;6371909;27;19924;-65
2022/04/16 06:07:09;;;;;;;;;;;;;;;15.36;33.65;96632.69;6372470;27;19923;-65
2022/04/16 06:10:11;;;;;;;;;;;;;;;15.55;33.75;96643.34;6372135;27;19930;-65
2022/04/16 06:13:17;;;;;;;;;;;;;;;15.41;34.31;96641.09;6372041;27;19923;-65
2022/04/16 06:16:20;;;;;;;;;;;;;;;17.17;31.60;96632.94;6371617;27;20417;-65
2022/04/16 06:19:25;;;;;;;;;;;;;;;18.70;29.54;96638.31;6372169;27;19927;-65
2022/04/16 06:22:27;;;;;;;;;;;;;;;18.17;29.74;96631.22;6371346;27;19930;-65
2022/04/16 06:25:28;;;;;;;;;;;;;;;17.56;30.61;96634.59;6371902;27;19924;-65
2022/04/16 06:28:33;;;;;;;;;;;;;;;16.90;31.55;96646.19;6371879;27;19923;-64
2022/04/16 06:31:34;;;;;;;;;;;;;;;16.45;32.52;96642.34;6371764;27;19929;-65
2022/04/16 06:34:40;;;;;;;;;;;;;;;16.06;32.80;96647.66;6371715;27;20405;-64
2022/04/16 06:37:43;;;;;;;;;;;;;;;15.48;33.69;96642.22;6371859;27;20280;-64
2022/04/16 06:40:44;;;;;;;;;;;;;;;14.80;34.85;96637.50;6352864;27;19931;-64
2022/04/16 06:43:47;;;;;;;;;;;;;;;14.50;35.55;96634.78;6371083;27;19924;-64
2022/04/16 06:46:50;;;;;;;;;;;;;;;14.68;35.26;96638.53;6371524;27;19931;-64
2022/04/16 06:49:51;;;;;;;;;;;;;;;14.65;35.35;96644.09;6370935;27;19923;-64
2022/04/16 06:52:55;;;;;;;;;;;;;;;14.46;35.96;96650.06;6370871;27;19930;-65
2022/04/16 06:56:00;;;;;;;;;;;;;;;14.44;36.06;96646.72;6370644;27;19923;-65
2022/04/16 06:59:01;;;;;;;;;;;;;;;14.97;35.55;96645.78;6371382;28;19924;-64
2022/04/16 07:02:05;;;;;;;;;;;;;;;15.66;34.51;96645.91;6371143;28;20010;-64
2022/04/16 07:05:07;;;;;;;;;;;;;;;15.91;34.13;96649.06;6370178;28;19923;-65
2022/04/16 07:08:12;;;;;;;;;;;;;;;16.47;33.49;96653.63;6371305;28;19923;-64
2022/04/16 07:11:16;;;;;;;;;;;;;;;17.99;31.32;96654.38;6370348;28;19923;-65
2022/04/16 07:14:20;;;;;;;;;;;;;;;19.14;29.25;96662.31;6371482;28;19924;-65
2022/04/16 07:17:22;;;;;;;;;;;;;;;21.80;26.13;96653.16;6370422;28;20315;-65
2022/04/16 07:20:23;;;;;;;;;;;;;;;25.70;22.43;96670.22;6370327;28;20017;-65
2022/04/16 07:23:24;;;;;;;;;;;;;;;28.69;19.36;96690.94;6370344;28;20038;-65
2022/04/16 07:26:27;;;;;;;;;;;;;;;27.20;20.77;96690.78;6371309;28;20325;-65
2022/04/16 07:29:31;;;;;;;;;;;;;;;23.95;22.83;96694.94;6370900;28;20319;-65
2022/04/16 07:32:32;;;;;;;;;;;;;;;21.44;25.90;96696.47;6370228;28;19930;-65
2022/04/16 07:35:38;;;;;;;;;;;;;;;20.47;26.79;96682.13;6371135;28;20510;-67
2022/04/16 07:38:43;;;;;;;;;;;;;;;19.96;26.98;96689.41;6370184;28;20376;-65
2022/04/16 07:41:49;;;;;;;;;;;;;;;19.36;27.75;96695.59;6370062;28;19924;-65
2022/04/16 07:44:53;;;;;;;;;;;;;;;20.18;26.46;96694.13;6371105;27;19954;-65
2022/04/16 07:47:56;;;;;;;;;;;;;;;23.17;23.85;96686.38;6357710;27;19923;-65
2022/04/16 07:50:57;;;;;;;;;;;;;;;25.28;21.17;96699.00;6375040;27;19954;-65
2022/04/16 07:53:58;;;;;;;;;;;;;;;26.77;20.65;96687.63;6375334;27;19927;-65
2022/04/16 07:57:01;;;;;;;;;;;;;;;29.44;17.63;96699.97;6374317;27;19924;-65
2022/04/16 08:00:04;;;;;;;;;;;;;;;28.65;17.53;96713.03;6374430;27;20005;-65
2022/04/16 08:03:05;;;;;;;;;;;;;;;29.84;17.78;96705.00;6374369;27;19931;-65
2022/04/16 08:06:09;;;;;;;;;;;;;;;32.05;15.20;96709.66;6373786;27;20021;-65
2022/04/16 08:09:12;;;;;;;;;;;;;;;33.56;13.97;96737.53;6375005;27;19923;-65
2022/04/16 08:12:16;;;;;;;;;;;;;;;34.73;12.48;96717.25;6374969;27;19923;-65
2022/04/16 08:15:17;;;;;;;;;;;;;;;35.84;13.09;96724.00;6373699;27;19923;-65
2022/04/16 08:18:19;;;;;;;;;;;;;;;35.99;12.65;96728.72;6374474;27;19927;-65
2022/04/16 08:21:21;;;;;;;;;;;;;;;34.45;13.04;96720.19;6373490;27;19923;-65
2022/04/16 08:27:32;;;;;;;;;;;;;;;32.97;13.60;96733.22;6374057;27;20026;-65
2022/04/16 08:30:36;;;;;;;;;;;;;;;29.85;15.36;96733.78;6355429;27;19919;-65
2022/04/16 08:33:37;;;;;;;;;;;;;;;28.36;16.70;96729.81;6371304;27;19923;-65
2022/04/16 08:36:40;;;;;;;;;;;;;;;29.18;16.16;96732.69;6373515;27;19927;-66
2022/04/16 08:39:41;;;;;;;;;;;;;;;31.10;14.70;96735.94;6373565;27;19923;-65
2022/04/16 08:42:51;;;;;;;;;;;;;;;30.83;15.02;96724.66;6373919;27;20379;-65
2022/04/16 08:45:53;;;;;;;;;;;;;;;28.27;16.59;96723.00;6372669;27;19988;-65
2022/04/16 08:48:57;;;;;;;;;;;;;;;29.45;15.48;96715.16;6373701;27;19946;-66
2022/04/16 08:52:04;;;;;;;;;;;;;;;30.67;14.61;96727.16;6374019;27;19930;-65
2022/04/16 08:55:07;;;;;;;;;;;;;;;31.08;13.93;96727.22;6373525;27;19923;-65
2022/04/16 08:58:13;;;;;;;;;;;;;;;32.56;13.62;96729.75;6372081;27;20304;-64
2022/04/16 09:01:18;;;;;;;;;;;;;;;34.46;12.60;96743.72;6373263;27;19923;-65
2022/04/16 09:04:22;;;;;;;;;;;;;;;35.58;11.68;96755.81;6355023;27;19923;-65
2022/04/16 09:07:26;;;;;;;;;;;;;;;36.32;11.50;96754.09;6373085;27;19924;-65
2022/04/16 09:10:28;;;;;;;;;;;;;;;36.66;11.45;96759.22;6371743;27;20000;-66
2022/04/16 09:13:29;;;;;;;;;;;;;;;36.88;10.61;96757.06;6371165;27;19931;-65
2022/04/16 09:16:31;;;;;;;;;;;;;;;36.24;11.03;96763.69;6372299;27;19924;-65
2022/04/16 09:19:34;;;;;;;;;;;;;;;34.93;12.01;96748.63;6355277;27;19923;-66
2022/04/16 09:22:37;;;;;;;;;;;;;;;34.63;11.78;96758.97;6372119;27;19930;-65
2022/04/16 09:25:41;;;;;;;;;;;;;;;34.77;12.00;96740.28;6372353;27;19930;-65
2022/04/16 09:28:44;;;;;;;;;;;;;;;35.54;11.39;96747.28;6372078;27;19923;-66
2022/04/16 09:31:49;;;;;;;;;;;;;;;36.18;11.04;96754.63;6372797;27;19923;-64
2022/04/16 09:34:52;;;;;;;;;;;;;;;36.66;10.67;96753.72;6372258;27;19972;-65
2022/04/16 09:37:54;;;;;;;;;;;;;;;36.86;10.22;96748.31;6371428;27;19924;-67
2022/04/16 09:41:03;;;;;;;;;;;;;;;36.62;10.51;96764.41;6372132;27;19967;-66
2022/04/16 09:44:36;;;;;;;;;;;;;;;35.95;11.17;96750.34;6372379;27;19924;-65
2022/04/16 09:47:37;;;;;;;;;;;;;;;34.45;11.77;96758.44;6350504;27;19963;-64
2022/04/16 09:50:38;;;;;;;;;;;;;;;34.34;11.63;96752.88;6371989;27;20064;-66
2022/04/16 09:53:41;;;;;;;;;;;;;;;34.12;11.63;96738.38;6371963;27;19930;-66
2022/04/16 09:56:46;;;;;;;;;;;;;;;33.24;12.02;96746.28;6372043;27;20299;-65
2022/04/16 09:59:50;;;;;;;;;;;;;;;32.95;12.15;96749.03;6371643;27;19923;-65
2022/04/16 10:02:53;;;;;;;;;;;;;;;33.07;12.08;96744.34;6371742;27;19930;-66
2022/04/16 10:05:55;;;;;;;;;;;;;;;32.87;12.23;96743.97;6371697;27;20010;-65
2022/04/16 10:09:17;;;;;;;;;;;;;;;32.06;13.07;96743.94;6371951;27;19923;-65
2022/04/16 10:15:20;;;;;;;;;;;;;;;32.01;12.75;96740.28;6371708;27;19923;-65
2022/04/16 10:18:24;;;;;;;;;;;;;;;32.31;12.61;96753.72;6353868;27;19964;-65
2022/04/16 10:21:32;;;;;;;;;;;;;;;31.84;13.28;96753.75;6371532;27;19923;-65
2022/04/16 10:24:35;;;;;;;;;;;;;;;31.22;13.40;96752.25;6371537;27;19930;-65
2022/04/16 10:27:42;;;;;;;;;;;;;;;31.15;13.43;96754.28;6371286;27;20345;-65
2022/04/16 10:30:51;;;;;;;;;;;;;;;31.89;13.43;96737.56;6371285;27;19945;-65
2022/04/16 10:34:05;;;;;;;;;;;;;;;31.33;13.33;96747.91;6371664;27;19923;-65
2022/04/16 10:37:07;;;;;;;;;;;;;;;31.28;13.36;96748.63;6371904;27;20416;-65
2022/04/16 10:40:16;;;;;;;;;;;;;;;31.11;13.36;96747.63;6371426;27;19924;-65
2022/04/16 10:43:23;;;;;;;;;;;;;;;31.01;13.79;96756.34;6370661;27;19930;-65
2022/04/16 10:46:24;;;;;;;;;;;;;;;30.36;14.14;96750.75;6370461;27;20332;-65
2022/04/16 10:49:27;;;;;;;;;;;;;;;30.03;14.23;96754.63;6370988;27;19999;-65
2022/04/16 10:52:31;;;;;;;;;;;;;;;29.76;14.50;96751.41;6371497;27;19980;-66
2022/04/16 10:55:36;;;;;;;;;;;;;;;29.54;14.50;96759.06;6371602;27;20304;-65
2022/04/16 10:58:39;;;;;;;;;;;;;;;29.05;14.63;96766.97;6352874;28;20334;-65
2022/04/16 11:01:51;;;;;;;;;;;;;;;27.90;15.35;96752.44;6371589;28;20311;-66
2022/04/16 11:04:56;;;;;;;;;;;;;;;27.00;15.86;96746.63;6371442;28;19924;-65
2022/04/16 11:07:59;;;;;;;;;;;;;;;26.28;16.81;96758.88;6370914;28;20363;-66
2022/04/16 11:11:03;;;;;;;;;;;;;;;26.18;17.12;96754.69;6371572;28;19930;-65
2022/04/16 11:14:07;;;;;;;;;;;;;;;26.88;16.44;96760.72;6369830;28;19924;-66
2022/04/16 11:17:13;;;;;;;;;;;;;;;26.53;16.83;96761.91;6353395;28;19924;-66
2022/04/16 11:20:14;;;;;;;;;;;;;;;25.59;17.29;96748.91;6370856;27;19968;-65
2022/04/16 11:23:15;;;;;;;;;;;;;;;25.19;17.36;96760.22;6375812;27;19923;-64
2022/04/16 11:36:28;;;;;;;;;;;;;;;24.49;17.88;96769.88;6375293;27;19923;-65
2022/04/16 11:39:34;;;;;;;;;;;;;;;24.30;18.11;96770.41;6375205;27;19934;-65
2022/04/16 11:42:35;;;;;;;;;;;;;;;24.52;18.15;96791.00;6375249;27;19923;-66
2022/04/16 11:45:44;;;;;;;;;;;;;;;24.61;18.29;96784.47;6375043;27;19923;-64
2022/04/16 11:48:46;;;;;;;;;;;;;;;24.68;18.00;96778.31;6375016;27;19927;-66
2022/04/16 11:51:50;;;;;;;;;;;;;;;23.69;19.03;96784.03;6375745;27;19923;-65
2022/04/16 11:55:07;;;;;;;;;;;;;;;22.89;19.95;96787.22;6374808;27;19926;-64
2022/04/16 11:58:11;;;;;;;;;;;;;;;22.98;19.92;96786.19;6375442;27;19923;-66
2022/04/16 12:01:18;;;;;;;;;;;;;;;22.91;19.84;96795.94;6357760;27;19973;-65
2022/04/16 12:04:19;;;;;;;;;;;;;;;22.23;20.33;96792.97;6374529;27;19923;-65
2022/04/16 12:07:24;;;;;;;;;;;;;;;22.10;20.76;96792.66;6374308;27;19927;-66
2022/04/16 12:10:30;;;;;;;;;;;;;;;21.83;21.15;96793.94;6375322;27;19923;-65
2022/04/16 12:13:35;;;;;;;;;;;;;;;21.45;21.74;96794.50;6375199;27;20581;-64
2022/04/16 12:16:37;;;;;;;;;;;;;;;21.20;21.84;96792.81;6373769;27;20384;-65
2022/04/16 12:19:41;;;;;;;;;;;;;;;20.76;22.33;96809.19;6374962;27;19923;-65
2022/04/16 12:22:49;;;;;;;;;;;;;;;20.21;23.14;96812.31;6374657;27;19927;-65
2022/04/16 12:26:01;;;;;;;;;;;;;;;20.05;23.18;96787.22;6374747;27;20384;-65
2022/04/16 12:29:08;;;;;;;;;;;;;;;19.21;24.29;96830.56;6355974;27;20342;-65
2022/04/16 12:32:12;;;;;;;;;;;;;;;18.82;24.64;96812.22;6374355;27;19998;-64
2022/04/16 12:35:15;;;;;;;;;;;;;;;18.77;24.96;96820.69;6374601;27;20335;-65
2022/04/16 12:38:18;;;;;;;;;;;;;;;18.70;24.76;96814.22;6373762;27;19931;-65
2022/04/16 12:41:22;;;;;;;;;;;;;;;19.02;24.82;96821.75;6373536;27;19919;-65
2022/04/16 12:44:26;;;;;;;;;;;;;;;18.90;24.75;96824.78;6355813;27;20368;-64
2022/04/16 12:47:29;;;;;;;;;;;;;;;18.81;24.50;96826.53;6373871;27;20440;-65
2022/04/16 12:50:35;;;;;;;;;;;;;;;18.45;25.04;96821.13;6374000;27;20056;-65
2022/04/16 12:53:36;;;;;;;;;;;;;;;18.49;24.89;96827.03;6355353;27;19958;-65
2022/04/16 12:56:37;;;;;;;;;;;;;;;18.35;25.12;96826.53;6374115;27;20004;-65
2022/04/16 12:59:40;;;;;;;;;;;;;;;18.06;25.71;96828.47;6354478;27;19923;-65
2022/04/16 13:02:46;;;;;;;;;;;;;;;17.60;26.40;96830.16;6373851;27;19927;-65
2022/04/16 13:05:47;;;;;;;;;;;;;;;17.37;26.40;96819.84;6372444;27;19930;-65
2022/04/16 13:08:48;;;;;;;;;;;;;;;17.50;26.46;96824.88;6373728;27;19923;-65
2022/04/16 13:11:51;;;;;;;;;;;;;;;16.97;27.03;96825.38;6372994;27;20376;-64
2022/04/16 13:14:52;;;;;;;;;;;;;;;16.60;27.64;96826.84;6372580;27;20300;-65
2022/04/16 13:17:53;;;;;;;;;;;;;;;16.17;28.09;96820.06;6373057;27;19959;-65
2022/04/16 13:20:57;;;;;;;;;;;;;;;15.91;28.57;96829.47;6373246;27;19930;-64
2022/04/16 13:23:58;;;;;;;;;;;;;;;15.46;29.20;96832.44;6373423;27;20010;-65
2022/04/16 13:27:06;;;;;;;;;;;;;;;15.00;29.83;96828.34;6373580;27;19923;-65
2022/04/16 13:30:08;;;;;;;;;;;;;;;14.81;30.07;96829.06;6373291;27;19969;-65
2022/04/16 13:33:12;;;;;;;;;;;;;;;14.63;30.46;96847.28;6373155;27;19930;-65
2022/04/16 13:36:16;;;;;;;;;;;;;;;14.42;30.75;96841.06;6373263;27;19980;-65
2022/04/16 13:42:36;;;;;;;;;;;;;;;14.09;31.30;96840.13;6372662;27;19923;-65
2022/04/16 13:45:37;;;;;;;;;;;;;;;14.04;31.60;96847.59;6372167;27;19923;-65
2022/04/16 13:48:38;;;;;;;;;;;;;;;13.86;31.97;96848.09;6354101;27;19929;-66
2022/04/16 13:51:41;;;;;;;;;;;;;;;13.76;32.36;96852.44;6372280;27;19969;-65
2022/04/16 13:54:47;;;;;;;;;;;;;;;13.59;32.43;96855.53;6372507;27;20420;-66
2022/04/16 13:57:51;;;;;;;;;;;;;;;13.42;32.79;96849.75;6372091;27;20338;-65
2022/04/16 14:00:52;;;;;;;;;;;;;;;13.34;33.15;96857.41;6371829;27;19935;-65
2022/04/16 14:03:59;;;;;;;;;;;;;;;13.23;33.63;96865.28;6370871;27;19923;-65
2022/04/16 14:07:03;;;;;;;;;;;;;;;13.11;33.99;96871.50;6372218;27;19923;-65
2022/04/16 14:10:06;;;;;;;;;;;;;;;12.70;34.55;96872.75;6372107;27;19927;-65
2022/04/16 14:13:10;;;;;;;;;;;;;;;12.34;34.78;96877.09;6372400;27;19923;-65
2022/04/16 14:16:14;;;;;;;;;;;;;;;12.16;35.65;96873.16;6372083;27;20018;-65
2022/04/16 14:19:15;;;;;;;;;;;;;;;11.87;36.06;96871.63;6371399;27;19924;-65
2022/04/16 14:22:18;;;;;;;;;;;;;;;11.59;36.51;96880.56;6371252;27;19927;-65
2022/04/16 14:25:24;;;;;;;;;;;;;;;11.45;36.97;96873.63;6371375;27;20018;-65
2022/04/16 14:28:24;;;;;;;;;;;;;;;11.22;37.20;96887.50;6371573;27;20376;-65
2022/04/16 14:31:28;;;;;;;;;;;;;;;11.04;37.82;96881.69;6371933;27;19996;-65
2022/04/16 14:34:29;;;;;;;;;;;;;;;10.93;38.44;96871.03;6370994;27;19923;-65
2022/04/16 14:37:30;;;;;;;;;;;;;;;10.59;38.51;96878.50;6370735;27;19923;-64
2022/04/16 14:40:31;;;;;;;;;;;;;;;10.47;39.38;96889.78;6370877;27;19924;-64
2022/04/16 14:43:34;;;;;;;;;;;;;;;10.25;39.99;96893.78;6371488;27;19945;-65
2022/04/16 14:46:35;;;;;;;;;;;;;;;10.09;40.42;96903.56;6370472;27;20010;-65
2022/04/16 14:49:36;;;;;;;;;;;;;;;9.90;40.67;96909.94;6370175;27;20448;-65
2022/04/16 14:52:37;;;;;;;;;;;;;;;9.73;40.98;96918.03;6370084;27;19934;-65
2022/04/16 14:55:43;;;;;;;;;;;;;;;9.50;41.38;96919.41;6370576;27;20350;-65
2022/04/16 14:58:49;;;;;;;;;;;;;;;9.17;41.79;96922.25;6371505;27;19923;-65
2022/04/16 15:01:50;;;;;;;;;;;;;;;9.05;42.44;96928.22;6371021;28;19934;-65
2022/04/16 15:04:54;;;;;;;;;;;;;;;8.89;42.72;96936.97;6370335;28;19923;-65
2022/04/16 15:07:59;;;;;;;;;;;;;;;8.79;43.25;96938.41;6371318;28;19996;-66
2022/04/16 15:11:03;;;;;;;;;;;;;;;8.52;43.27;96948.66;6371571;28;20022;-65
2022/04/16 15:14:04;;;;;;;;;;;;;;;8.36;43.91;96951.28;6370764;28;19930;-65
2022/04/16 15:17:05;;;;;;;;;;;;;;;8.22;44.35;96948.56;6370888;28;19924;-63
2022/04/16 15:20:06;;;;;;;;;;;;;;;8.06;44.82;96949.38;6370135;28;19923;-65
2022/04/16 15:23:07;;;;;;;;;;;;;;;7.95;45.54;96951.72;6370844;28;20040;-65
2022/04/16 15:26:09;;;;;;;;;;;;;;;7.80;45.54;96960.41;6370592;28;20018;-65
2022/04/16 15:29:12;;;;;;;;;;;;;;;7.73;46.25;96972.09;6371162;28;19919;-65
2022/04/16 15:32:14;;;;;;;;;;;;;;;7.48;46.30;96973.38;6369767;28;19992;-65
2022/04/16 15:35:23;;;;;;;;;;;;;;;7.36;47.05;96969.63;6370642;28;20390;-64
2022/04/16 15:38:24;;;;;;;;;;;;;;;7.24;47.17;96980.69;6351692;28;20023;-65
2022/04/16 15:41:31;;;;;;;;;;;;;;;6.99;47.61;96986.28;6371133;28;20281;-65
2022/04/16 15:44:35;;;;;;;;;;;;;;;6.82;48.25;96988.84;6371020;28;19946;-66
2022/04/16 15:47:37;;;;;;;;;;;;;;;6.56;48.83;96983.09;6370472;28;20020;-65
2022/04/16 15:50:40;;;;;;;;;;;;;;;6.62;49.17;96988.03;6371116;28;19923;-65
2022/04/16 15:53:42;;;;;;;;;;;;;;;6.42;49.40;96995.97;6369720;28;19980;-64
2022/04/16 15:56:45;;;;;;;;;;;;;;;6.29;49.54;97001.78;6370317;28;19983;-65
2022/04/16 15:59:46;;;;;;;;;;;;;;;6.26;49.63;97007.16;6370916;28;19930;-65
2022/04/16 16:02:47;;;;;;;;;;;;;;;6.15;49.99;97004.16;6369547;28;19923;-64
2022/04/16 16:05:51;;;;;;;;;;;;;;;6.08;50.19;96997.50;6370627;27;19923;-64
2022/04/16 16:08:54;;;;;;;;;;;;;;;5.94;50.38;97005.13;6374754;27;19924;-65
2022/04/16 16:12:00;;;;;;;;;;;;;;;5.96;50.51;97005.91;6375514;27;20296;-64
2022/04/16 16:15:06;;;;;;;;;;;;;;;5.84;50.52;97010.72;6375322;27;20100;-66
2022/04/16 16:18:09;;;;;;;;;;;;;;;5.78;50.90;97012.75;6374336;27;19923;-65
2022/04/16 16:21:10;;;;;;;;;;;;;;;5.74;51.20;97021.63;6374489;27;19923;-64
2022/04/16 16:24:16;;;;;;;;;;;;;;;5.58;51.23;97014.47;6374296;27;19930;-65
2022/04/16 16:27:17;;;;;;;;;;;;;;;5.53;51.44;97024.25;6374432;27;19923;-65
2022/04/16 16:30:20;;;;;;;;;;;;;;;5.47;51.61;97039.31;6374731;27;20014;-64
2022/04/16 16:33:21;;;;;;;;;;;;;;;5.43;51.69;97048.16;6373830;27;19924;-64
2022/04/16 16:36:27;;;;;;;;;;;;;;;5.43;52.07;97050.78;6374638;27;19989;-65
2022/04/16 16:39:30;;;;;;;;;;;;;;;5.40;52.24;97039.56;6373739;27;20365;-64